sensor_id;sensor_type;location;lat;lon;timestamp;P1;durP1;ratioP1;P2;durP2;ratioP2
28904;SDS011;60848;53.884;11.446;2022-12-08T00:02:24;4.32;;;1.85;;
28904;SDS011;60848;53.884;11.446;2022-12-08T00:04:52;5.72;;;1.40;;
28904;SDS011;60848;53.884;11.446;2022-12-08T00:07:39;7.25;;;1.85;;
28904;SDS011;60848;53.884;11.446;2022-12-08T00:10:25;3.65;;;1.40;;
28904;SDS011;60848;53.884;11.446;2022-12-08T00:13:13;3.80;;;1.73;;
28904;SDS011;60848;53.884;11.446;2022-12-08T00:15:42;2.42;;;1.50;;
28904;SDS011;60848;53.884;11.446;2022-12-08T00:18:10;2.90;;;1.50;;
28904;SDS011;60848;53.884;11.446;2022-12-08T00:20:41;4.22;;;1.38;;
28904;SDS011;60848;53.884;11.446;2022-12-08T00:23:10;5.10;;;1.48;;
28904;SDS011;60848;53.884;11.446;2022-12-08T00:25:39;4.22;;;1.50;;
28904;SDS011;60848;53.884;11.446;2022-12-08T00:28:07;2.80;;;1.33;;
28904;SDS011;60848;53.884;11.446;2022-12-08T00:30:38;6.13;;;1.67;;
28904;SDS011;60848;53.884;11.446;2022-12-08T00:33:06;2.23;;;1.20;;
28904;SDS011;60848;53.884;11.446;2022-12-08T00:35:35;3.15;;;1.10;;
28904;SDS011;60848;53.884;11.446;2022-12-08T00:38:08;3.03;;;1.38;;
28904;SDS011;60848;53.884;11.446;2022-12-08T00:40:42;2.97;;;1.38;;
28904;SDS011;60848;53.884;11.446;2022-12-08T00:43:11;4.03;;;1.20;;
28904;SDS011;60848;53.884;11.446;2022-12-08T00:45:39;4.68;;;1.25;;
28904;SDS011;60848;53.884;11.446;2022-12-08T00:48:08;4.45;;;1.45;;
28904;SDS011;60848;53.884;11.446;2022-12-08T00:50:36;4.20;;;1.02;;
28904;SDS011;60848;53.884;11.446;2022-12-08T00:53:06;4.63;;;1.10;;
28904;SDS011;60848;53.884;11.446;2022-12-08T00:55:36;6.10;;;1.30;;
28904;SDS011;60848;53.884;11.446;2022-12-08T00:58:07;2.17;;;1.10;;
28904;SDS011;60848;53.884;11.446;2022-12-08T01:00:38;3.20;;;1.30;;
28904;SDS011;60848;53.884;11.446;2022-12-08T01:03:08;2.45;;;1.27;;
28904;SDS011;60848;53.884;11.446;2022-12-08T01:05:37;3.75;;;1.52;;
28904;SDS011;60848;53.884;11.446;2022-12-08T01:08:06;4.57;;;1.50;;
28904;SDS011;60848;53.884;11.446;2022-12-08T01:10:37;6.05;;;1.80;;
28904;SDS011;60848;53.884;11.446;2022-12-08T01:13:06;4.80;;;2.40;;
28904;SDS011;60848;53.884;11.446;2022-12-08T01:15:34;4.00;;;2.50;;
28904;SDS011;60848;53.884;11.446;2022-12-08T01:18:05;6.78;;;2.80;;
28904;SDS011;60848;53.884;11.446;2022-12-08T01:20:33;4.80;;;2.40;;
28904;SDS011;60848;53.884;11.446;2022-12-08T01:23:01;4.05;;;2.60;;
28904;SDS011;60848;53.884;11.446;2022-12-08T01:25:30;6.03;;;2.63;;
28904;SDS011;60848;53.884;11.446;2022-12-08T01:28:02;5.20;;;2.80;;
28904;SDS011;60848;53.884;11.446;2022-12-08T01:30:33;8.98;;;3.28;;
28904;SDS011;60848;53.884;11.446;2022-12-08T01:33:01;5.40;;;2.95;;
28904;SDS011;60848;53.884;11.446;2022-12-08T01:35:29;6.30;;;2.35;;
28904;SDS011;60848;53.884;11.446;2022-12-08T01:37:58;6.03;;;2.30;;
28904;SDS011;60848;53.884;11.446;2022-12-08T01:40:26;3.40;;;1.92;;
28904;SDS011;60848;53.884;11.446;2022-12-08T01:42:57;5.25;;;2.20;;
28904;SDS011;60848;53.884;11.446;2022-12-08T01:45:27;4.03;;;2.28;;
28904;SDS011;60848;53.884;11.446;2022-12-08T01:47:59;6.55;;;2.50;;
28904;SDS011;60848;53.884;11.446;2022-12-08T01:50:30;7.35;;;2.80;;
28904;SDS011;60848;53.884;11.446;2022-12-08T01:53:00;6.22;;;2.75;;
28904;SDS011;60848;53.884;11.446;2022-12-08T01:55:34;8.07;;;3.72;;
28904;SDS011;60848;53.884;11.446;2022-12-08T01:58:10;6.50;;;3.10;;
28904;SDS011;60848;53.884;11.446;2022-12-08T02:00:45;7.85;;;3.63;;
28904;SDS011;60848;53.884;11.446;2022-12-08T02:03:19;6.28;;;3.22;;
28904;SDS011;60848;53.884;11.446;2022-12-08T02:05:52;8.52;;;4.38;;
28904;SDS011;60848;53.884;11.446;2022-12-08T02:08:20;9.27;;;4.82;;
28904;SDS011;60848;53.884;11.446;2022-12-08T02:10:50;7.55;;;3.92;;
28904;SDS011;60848;53.884;11.446;2022-12-08T02:13:19;9.07;;;4.22;;
28904;SDS011;60848;53.884;11.446;2022-12-08T02:15:53;8.38;;;4.70;;
28904;SDS011;60848;53.884;11.446;2022-12-08T02:18:34;13.23;;;7.68;;
28904;SDS011;60848;53.884;11.446;2022-12-08T02:21:32;15.35;;;8.23;;
28904;SDS011;60848;53.884;11.446;2022-12-08T02:24:08;16.40;;;9.65;;
28904;SDS011;60848;53.884;11.446;2022-12-08T02:30:01;18.05;;;10.70;;
28904;SDS011;60848;53.884;11.446;2022-12-08T02:35:37;19.42;;;11.50;;
28904;SDS011;60848;53.884;11.446;2022-12-08T02:38:14;18.25;;;11.32;;
28904;SDS011;60848;53.884;11.446;2022-12-08T02:40:58;19.38;;;11.75;;
28904;SDS011;60848;53.884;11.446;2022-12-08T02:43:37;19.60;;;11.90;;
28904;SDS011;60848;53.884;11.446;2022-12-08T02:46:12;18.70;;;11.70;;
28904;SDS011;60848;53.884;11.446;2022-12-08T02:48:44;19.45;;;11.48;;
28904;SDS011;60848;53.884;11.446;2022-12-08T02:51:17;17.95;;;11.20;;
28904;SDS011;60848;53.884;11.446;2022-12-08T02:53:46;19.60;;;11.30;;
28904;SDS011;60848;53.884;11.446;2022-12-08T02:56:30;17.83;;;10.90;;
28904;SDS011;60848;53.884;11.446;2022-12-08T02:59:15;17.88;;;10.77;;
28904;SDS011;60848;53.884;11.446;2022-12-08T03:01:58;18.88;;;11.27;;
28904;SDS011;60848;53.884;11.446;2022-12-08T03:04:40;17.27;;;10.77;;
28904;SDS011;60848;53.884;11.446;2022-12-08T03:07:19;19.65;;;10.95;;
28904;SDS011;60848;53.884;11.446;2022-12-08T03:09:52;18.55;;;10.85;;
28904;SDS011;60848;53.884;11.446;2022-12-08T03:12:24;17.77;;;10.70;;
28904;SDS011;60848;53.884;11.446;2022-12-08T03:14:58;19.48;;;11.25;;
28904;SDS011;60848;53.884;11.446;2022-12-08T03:17:30;17.85;;;10.65;;
28904;SDS011;60848;53.884;11.446;2022-12-08T03:20:00;18.80;;;10.80;;
28904;SDS011;60848;53.884;11.446;2022-12-08T03:22:37;18.40;;;10.82;;
28904;SDS011;60848;53.884;11.446;2022-12-08T03:25:09;18.63;;;10.95;;
28904;SDS011;60848;53.884;11.446;2022-12-08T03:27:41;17.45;;;10.68;;
28904;SDS011;60848;53.884;11.446;2022-12-08T03:30:10;18.40;;;11.07;;
28904;SDS011;60848;53.884;11.446;2022-12-08T03:32:41;19.67;;;11.38;;
28904;SDS011;60848;53.884;11.446;2022-12-08T03:35:15;19.63;;;10.93;;
28904;SDS011;60848;53.884;11.446;2022-12-08T03:37:48;18.92;;;11.38;;
28904;SDS011;60848;53.884;11.446;2022-12-08T03:40:17;19.08;;;11.68;;
28904;SDS011;60848;53.884;11.446;2022-12-08T03:42:47;15.80;;;8.88;;
28904;SDS011;60848;53.884;11.446;2022-12-08T03:45:15;16.70;;;7.55;;
28904;SDS011;60848;53.884;11.446;2022-12-08T03:47:44;13.98;;;6.75;;
28904;SDS011;60848;53.884;11.446;2022-12-08T03:50:12;14.10;;;7.18;;
28904;SDS011;60848;53.884;11.446;2022-12-08T03:52:42;13.55;;;7.00;;
28904;SDS011;60848;53.884;11.446;2022-12-08T03:55:12;15.10;;;7.85;;
28904;SDS011;60848;53.884;11.446;2022-12-08T03:57:41;14.23;;;7.07;;
28904;SDS011;60848;53.884;11.446;2022-12-08T04:00:10;14.70;;;7.32;;
28904;SDS011;60848;53.884;11.446;2022-12-08T04:02:42;15.40;;;7.53;;
28904;SDS011;60848;53.884;11.446;2022-12-08T04:05:13;15.43;;;7.30;;
28904;SDS011;60848;53.884;11.446;2022-12-08T04:07:41;16.05;;;7.13;;
28904;SDS011;60848;53.884;11.446;2022-12-08T04:10:10;13.82;;;7.78;;
28904;SDS011;60848;53.884;11.446;2022-12-08T04:12:39;13.88;;;6.88;;
28904;SDS011;60848;53.884;11.446;2022-12-08T04:15:08;13.88;;;7.95;;
28904;SDS011;60848;53.884;11.446;2022-12-08T04:17:37;15.07;;;7.53;;
28904;SDS011;60848;53.884;11.446;2022-12-08T04:20:06;19.17;;;8.60;;
28904;SDS011;60848;53.884;11.446;2022-12-08T04:22:35;16.95;;;8.05;;
28904;SDS011;60848;53.884;11.446;2022-12-08T04:25:04;16.95;;;7.68;;
28904;SDS011;60848;53.884;11.446;2022-12-08T04:27:35;15.15;;;7.38;;
28904;SDS011;60848;53.884;11.446;2022-12-08T04:30:05;14.82;;;7.15;;
28904;SDS011;60848;53.884;11.446;2022-12-08T04:32:37;17.25;;;7.80;;
28904;SDS011;60848;53.884;11.446;2022-12-08T04:35:12;22.63;;;11.88;;
28904;SDS011;60848;53.884;11.446;2022-12-08T04:37:41;22.63;;;12.87;;
28904;SDS011;60848;53.884;11.446;2022-12-08T04:40:10;16.10;;;8.57;;
28904;SDS011;60848;53.884;11.446;2022-12-08T04:42:39;17.67;;;8.82;;
28904;SDS011;60848;53.884;11.446;2022-12-08T04:45:09;14.80;;;8.10;;
28904;SDS011;60848;53.884;11.446;2022-12-08T04:47:38;17.35;;;8.23;;
28904;SDS011;60848;53.884;11.446;2022-12-08T04:50:06;16.63;;;7.88;;
28904;SDS011;60848;53.884;11.446;2022-12-08T04:52:35;17.27;;;8.30;;
28904;SDS011;60848;53.884;11.446;2022-12-08T04:55:04;15.93;;;8.13;;
28904;SDS011;60848;53.884;11.446;2022-12-08T04:57:33;16.65;;;8.32;;
28904;SDS011;60848;53.884;11.446;2022-12-08T05:00:02;19.60;;;8.73;;
28904;SDS011;60848;53.884;11.446;2022-12-08T05:02:33;15.98;;;8.25;;
28904;SDS011;60848;53.884;11.446;2022-12-08T05:05:01;17.38;;;7.78;;
28904;SDS011;60848;53.884;11.446;2022-12-08T05:07:30;18.92;;;8.75;;
28904;SDS011;60848;53.884;11.446;2022-12-08T05:10:01;18.57;;;8.60;;
28904;SDS011;60848;53.884;11.446;2022-12-08T05:12:30;16.00;;;8.88;;
28904;SDS011;60848;53.884;11.446;2022-12-08T05:14:59;20.13;;;8.27;;
28904;SDS011;60848;53.884;11.446;2022-12-08T05:17:30;22.48;;;9.45;;
28904;SDS011;60848;53.884;11.446;2022-12-08T05:19:59;19.52;;;9.00;;
28904;SDS011;60848;53.884;11.446;2022-12-08T05:22:29;26.02;;;13.30;;
28904;SDS011;60848;53.884;11.446;2022-12-08T05:24:57;26.55;;;14.20;;
28904;SDS011;60848;53.884;11.446;2022-12-08T05:27:25;26.55;;;14.27;;
28904;SDS011;60848;53.884;11.446;2022-12-08T05:29:54;27.70;;;14.43;;
28904;SDS011;60848;53.884;11.446;2022-12-08T05:32:22;20.65;;;9.90;;
28904;SDS011;60848;53.884;11.446;2022-12-08T05:34:51;20.08;;;10.02;;
28904;SDS011;60848;53.884;11.446;2022-12-08T05:37:20;21.10;;;10.45;;
28904;SDS011;60848;53.884;11.446;2022-12-08T05:39:51;17.23;;;9.07;;
28904;SDS011;60848;53.884;11.446;2022-12-08T05:42:19;17.50;;;9.07;;
28904;SDS011;60848;53.884;11.446;2022-12-08T05:44:50;19.08;;;9.95;;
28904;SDS011;60848;53.884;11.446;2022-12-08T05:47:19;20.05;;;9.80;;
28904;SDS011;60848;53.884;11.446;2022-12-08T05:49:47;18.27;;;10.18;;
28904;SDS011;60848;53.884;11.446;2022-12-08T05:52:16;19.60;;;10.27;;
28904;SDS011;60848;53.884;11.446;2022-12-08T05:54:45;21.25;;;11.05;;
28904;SDS011;60848;53.884;11.446;2022-12-08T05:57:14;21.25;;;10.15;;
28904;SDS011;60848;53.884;11.446;2022-12-08T06:32:02;21.83;;;12.00;;
28904;SDS011;60848;53.884;11.446;2022-12-08T06:34:31;25.23;;;13.38;;
28904;SDS011;60848;53.884;11.446;2022-12-08T06:36:59;22.65;;;13.35;;
28904;SDS011;60848;53.884;11.446;2022-12-08T06:39:30;26.33;;;13.18;;
28904;SDS011;60848;53.884;11.446;2022-12-08T06:41:59;25.55;;;13.52;;
28904;SDS011;60848;53.884;11.446;2022-12-08T06:44:46;24.02;;;12.93;;
28904;SDS011;60848;53.884;11.446;2022-12-08T06:47:15;24.30;;;12.70;;
28904;SDS011;60848;53.884;11.446;2022-12-08T06:49:51;26.63;;;13.52;;
28904;SDS011;60848;53.884;11.446;2022-12-08T06:52:19;27.00;;;13.73;;
28904;SDS011;60848;53.884;11.446;2022-12-08T06:54:48;26.65;;;13.05;;
28904;SDS011;60848;53.884;11.446;2022-12-08T06:57:16;26.27;;;14.07;;
28904;SDS011;60848;53.884;11.446;2022-12-08T06:59:45;24.02;;;12.57;;
28904;SDS011;60848;53.884;11.446;2022-12-08T07:02:14;26.27;;;12.73;;
28904;SDS011;60848;53.884;11.446;2022-12-08T07:04:45;26.55;;;14.18;;
28904;SDS011;60848;53.884;11.446;2022-12-08T07:07:14;30.63;;;15.57;;
28904;SDS011;60848;53.884;11.446;2022-12-08T07:09:42;33.85;;;17.00;;
28904;SDS011;60848;53.884;11.446;2022-12-08T07:12:11;30.10;;;15.55;;
28904;SDS011;60848;53.884;11.446;2022-12-08T07:14:39;29.10;;;15.07;;
28904;SDS011;60848;53.884;11.446;2022-12-08T07:17:09;22.80;;;13.02;;
28904;SDS011;60848;53.884;11.446;2022-12-08T07:19:37;29.15;;;13.43;;
28904;SDS011;60848;53.884;11.446;2022-12-08T07:22:06;23.67;;;12.93;;
28904;SDS011;60848;53.884;11.446;2022-12-08T07:24:34;23.70;;;12.30;;
28904;SDS011;60848;53.884;11.446;2022-12-08T07:27:02;23.60;;;11.68;;
28904;SDS011;60848;53.884;11.446;2022-12-08T07:29:33;22.48;;;11.70;;
28904;SDS011;60848;53.884;11.446;2022-12-08T07:32:01;21.23;;;12.02;;
28904;SDS011;60848;53.884;11.446;2022-12-08T07:34:31;21.92;;;12.63;;
28904;SDS011;60848;53.884;11.446;2022-12-08T07:37:00;22.90;;;12.82;;
28904;SDS011;60848;53.884;11.446;2022-12-08T07:39:28;21.25;;;11.57;;
28904;SDS011;60848;53.884;11.446;2022-12-08T07:41:57;21.27;;;12.18;;
28904;SDS011;60848;53.884;11.446;2022-12-08T07:44:26;20.05;;;11.30;;
28904;SDS011;60848;53.884;11.446;2022-12-08T07:46:54;21.65;;;11.60;;
28904;SDS011;60848;53.884;11.446;2022-12-08T07:49:24;21.80;;;12.07;;
28904;SDS011;60848;53.884;11.446;2022-12-08T07:51:54;19.58;;;10.98;;
28904;SDS011;60848;53.884;11.446;2022-12-08T07:54:22;19.52;;;11.63;;
28904;SDS011;60848;53.884;11.446;2022-12-08T07:56:51;30.23;;;14.63;;
28904;SDS011;60848;53.884;11.446;2022-12-08T07:59:19;22.13;;;11.70;;
28904;SDS011;60848;53.884;11.446;2022-12-08T08:01:48;24.95;;;11.40;;
28904;SDS011;60848;53.884;11.446;2022-12-08T08:04:37;29.17;;;15.55;;
28904;SDS011;60848;53.884;11.446;2022-12-08T08:07:09;35.03;;;18.25;;
28904;SDS011;60848;53.884;11.446;2022-12-08T08:09:40;32.22;;;15.80;;
28904;SDS011;60848;53.884;11.446;2022-12-08T08:12:08;31.02;;;16.35;;
28904;SDS011;60848;53.884;11.446;2022-12-08T08:14:57;24.17;;;12.80;;
28904;SDS011;60848;53.884;11.446;2022-12-08T08:17:25;21.75;;;12.20;;
28904;SDS011;60848;53.884;11.446;2022-12-08T08:19:54;22.77;;;12.77;;
28904;SDS011;60848;53.884;11.446;2022-12-08T08:22:24;31.83;;;17.00;;
28904;SDS011;60848;53.884;11.446;2022-12-08T08:24:53;25.15;;;13.93;;
28904;SDS011;60848;53.884;11.446;2022-12-08T08:27:24;26.73;;;14.38;;
28904;SDS011;60848;53.884;11.446;2022-12-08T08:29:53;26.75;;;14.45;;
28904;SDS011;60848;53.884;11.446;2022-12-08T08:32:21;27.67;;;14.48;;
28904;SDS011;60848;53.884;11.446;2022-12-08T08:34:49;26.27;;;12.57;;
28904;SDS011;60848;53.884;11.446;2022-12-08T08:37:18;24.95;;;12.35;;
28904;SDS011;60848;53.884;11.446;2022-12-08T08:39:48;25.88;;;13.20;;
28904;SDS011;60848;53.884;11.446;2022-12-08T08:42:16;29.77;;;13.85;;
28904;SDS011;60848;53.884;11.446;2022-12-08T08:44:47;30.90;;;15.85;;
28904;SDS011;60848;53.884;11.446;2022-12-08T08:47:17;28.00;;;14.65;;
28904;SDS011;60848;53.884;11.446;2022-12-08T08:49:48;23.00;;;12.85;;
28904;SDS011;60848;53.884;11.446;2022-12-08T08:52:18;116.13;;;65.93;;
28904;SDS011;60848;53.884;11.446;2022-12-08T08:54:51;51.20;;;28.23;;
28904;SDS011;60848;53.884;11.446;2022-12-08T08:57:19;34.42;;;18.48;;
28904;SDS011;60848;53.884;11.446;2022-12-08T08:59:54;26.67;;;13.93;;
28904;SDS011;60848;53.884;11.446;2022-12-08T09:02:22;26.63;;;13.05;;
28904;SDS011;60848;53.884;11.446;2022-12-08T09:04:51;25.25;;;12.48;;
28904;SDS011;60848;53.884;11.446;2022-12-08T09:07:19;26.30;;;12.68;;
28904;SDS011;60848;53.884;11.446;2022-12-08T09:09:48;27.10;;;12.32;;
28904;SDS011;60848;53.884;11.446;2022-12-08T09:12:17;27.10;;;12.60;;
28904;SDS011;60848;53.884;11.446;2022-12-08T09:14:46;28.73;;;13.73;;
28904;SDS011;60848;53.884;11.446;2022-12-08T09:17:14;29.20;;;13.80;;
28904;SDS011;60848;53.884;11.446;2022-12-08T09:19:43;27.02;;;12.35;;
28904;SDS011;60848;53.884;11.446;2022-12-08T09:22:13;28.05;;;14.43;;
28904;SDS011;60848;53.884;11.446;2022-12-08T09:24:42;25.83;;;13.32;;
28904;SDS011;60848;53.884;11.446;2022-12-08T09:27:11;30.67;;;15.85;;
28904;SDS011;60848;53.884;11.446;2022-12-08T09:29:40;25.42;;;13.05;;
28904;SDS011;60848;53.884;11.446;2022-12-08T09:32:09;26.85;;;12.77;;
28904;SDS011;60848;53.884;11.446;2022-12-08T09:34:40;28.10;;;13.55;;
28904;SDS011;60848;53.884;11.446;2022-12-08T09:37:15;29.58;;;13.18;;
28904;SDS011;60848;53.884;11.446;2022-12-08T09:39:44;27.10;;;13.30;;
28904;SDS011;60848;53.884;11.446;2022-12-08T09:42:13;27.17;;;12.98;;
28904;SDS011;60848;53.884;11.446;2022-12-08T09:44:56;30.45;;;14.57;;
28904;SDS011;60848;53.884;11.446;2022-12-08T09:47:34;26.27;;;12.88;;
28904;SDS011;60848;53.884;11.446;2022-12-08T09:50:09;26.10;;;13.07;;
28904;SDS011;60848;53.884;11.446;2022-12-08T09:52:42;28.30;;;13.25;;
28904;SDS011;60848;53.884;11.446;2022-12-08T09:57:44;26.83;;;12.82;;
28904;SDS011;60848;53.884;11.446;2022-12-08T10:00:23;24.40;;;12.23;;
28904;SDS011;60848;53.884;11.446;2022-12-08T10:02:51;25.10;;;12.40;;
28904;SDS011;60848;53.884;11.446;2022-12-08T10:05:21;23.65;;;12.25;;
28904;SDS011;60848;53.884;11.446;2022-12-08T10:07:56;26.30;;;13.50;;
28904;SDS011;60848;53.884;11.446;2022-12-08T10:10:32;27.23;;;13.23;;
28904;SDS011;60848;53.884;11.446;2022-12-08T10:13:07;30.30;;;14.52;;
28904;SDS011;60848;53.884;11.446;2022-12-08T10:15:48;28.85;;;13.63;;
28904;SDS011;60848;53.884;11.446;2022-12-08T10:18:24;28.33;;;13.55;;
28904;SDS011;60848;53.884;11.446;2022-12-08T10:20:56;28.75;;;14.05;;
28904;SDS011;60848;53.884;11.446;2022-12-08T10:23:28;29.35;;;14.70;;
28904;SDS011;60848;53.884;11.446;2022-12-08T10:26:00;27.05;;;13.07;;
28904;SDS011;60848;53.884;11.446;2022-12-08T10:28:31;28.92;;;13.93;;
28904;SDS011;60848;53.884;11.446;2022-12-08T10:31:14;30.85;;;13.88;;
28904;SDS011;60848;53.884;11.446;2022-12-08T10:33:44;28.25;;;14.35;;
28904;SDS011;60848;53.884;11.446;2022-12-08T10:36:14;30.90;;;14.60;;
28904;SDS011;60848;53.884;11.446;2022-12-08T10:38:42;30.52;;;14.20;;
28904;SDS011;60848;53.884;11.446;2022-12-08T10:41:11;34.25;;;15.25;;
28904;SDS011;60848;53.884;11.446;2022-12-08T10:43:45;30.80;;;14.70;;
28904;SDS011;60848;53.884;11.446;2022-12-08T10:46:17;33.10;;;14.02;;
28904;SDS011;60848;53.884;11.446;2022-12-08T10:48:48;33.65;;;15.95;;
28904;SDS011;60848;53.884;11.446;2022-12-08T10:51:22;34.65;;;16.58;;
28904;SDS011;60848;53.884;11.446;2022-12-08T10:53:53;30.90;;;15.00;;
28904;SDS011;60848;53.884;11.446;2022-12-08T10:56:23;34.53;;;16.90;;
28904;SDS011;60848;53.884;11.446;2022-12-08T11:01:44;30.23;;;14.75;;
28904;SDS011;60848;53.884;11.446;2022-12-08T11:04:16;34.33;;;15.63;;
28904;SDS011;60848;53.884;11.446;2022-12-08T11:06:46;32.58;;;16.25;;
28904;SDS011;60848;53.884;11.446;2022-12-08T11:09:22;33.70;;;16.13;;
28904;SDS011;60848;53.884;11.446;2022-12-08T11:12:07;62.05;;;30.77;;
28904;SDS011;60848;53.884;11.446;2022-12-08T11:14:45;85.85;;;41.30;;
28904;SDS011;60848;53.884;11.446;2022-12-08T11:17:22;49.45;;;24.15;;
28904;SDS011;60848;53.884;11.446;2022-12-08T11:19:57;36.45;;;18.10;;
28904;SDS011;60848;53.884;11.446;2022-12-08T11:22:29;35.47;;;16.83;;
28904;SDS011;60848;53.884;11.446;2022-12-08T11:24:59;30.88;;;15.52;;
28904;SDS011;60848;53.884;11.446;2022-12-08T11:27:38;33.38;;;15.68;;
28904;SDS011;60848;53.884;11.446;2022-12-08T11:30:11;34.97;;;16.02;;
28904;SDS011;60848;53.884;11.446;2022-12-08T11:32:44;30.40;;;14.80;;
28904;SDS011;60848;53.884;11.446;2022-12-08T11:35:17;29.55;;;14.85;;
28904;SDS011;60848;53.884;11.446;2022-12-08T11:37:49;26.23;;;13.93;;
28904;SDS011;60848;53.884;11.446;2022-12-08T11:40:29;31.48;;;15.48;;
28904;SDS011;60848;53.884;11.446;2022-12-08T11:43:04;33.70;;;15.15;;
28904;SDS011;60848;53.884;11.446;2022-12-08T11:45:35;30.33;;;13.05;;
28904;SDS011;60848;53.884;11.446;2022-12-08T11:48:10;31.02;;;13.93;;
28904;SDS011;60848;53.884;11.446;2022-12-08T11:50:42;27.25;;;14.00;;
28904;SDS011;60848;53.884;11.446;2022-12-08T11:53:18;28.95;;;13.23;;
28904;SDS011;60848;53.884;11.446;2022-12-08T11:55:52;32.38;;;14.60;;
28904;SDS011;60848;53.884;11.446;2022-12-08T11:58:25;30.80;;;14.48;;
28904;SDS011;60848;53.884;11.446;2022-12-08T12:01:03;29.52;;;13.85;;
28904;SDS011;60848;53.884;11.446;2022-12-08T12:03:36;29.90;;;15.30;;
28904;SDS011;60848;53.884;11.446;2022-12-08T12:06:15;47.33;;;23.25;;
28904;SDS011;60848;53.884;11.446;2022-12-08T12:09:28;51.25;;;24.23;;
28904;SDS011;60848;53.884;11.446;2022-12-08T12:12:05;49.58;;;24.02;;
28904;SDS011;60848;53.884;11.446;2022-12-08T12:17:50;36.22;;;18.80;;
28904;SDS011;60848;53.884;11.446;2022-12-08T12:20:24;37.85;;;17.40;;
28904;SDS011;60848;53.884;11.446;2022-12-08T12:22:58;51.92;;;24.95;;
28904;SDS011;60848;53.884;11.446;2022-12-08T12:25:31;108.35;;;52.65;;
28904;SDS011;60848;53.884;11.446;2022-12-08T12:28:03;53.90;;;24.95;;
28904;SDS011;60848;53.884;11.446;2022-12-08T12:30:47;52.63;;;25.02;;
28904;SDS011;60848;53.884;11.446;2022-12-08T12:33:20;54.28;;;25.95;;
28904;SDS011;60848;53.884;11.446;2022-12-08T12:35:51;49.15;;;24.90;;
28904;SDS011;60848;53.884;11.446;2022-12-08T12:38:24;55.92;;;24.75;;
28904;SDS011;60848;53.884;11.446;2022-12-08T12:41:19;48.65;;;22.85;;
28904;SDS011;60848;53.884;11.446;2022-12-08T12:44:07;48.97;;;22.70;;
28904;SDS011;60848;53.884;11.446;2022-12-08T12:46:54;46.38;;;20.13;;
28904;SDS011;60848;53.884;11.446;2022-12-08T12:55:28;52.20;;;27.20;;
28904;SDS011;60848;53.884;11.446;2022-12-08T12:58:33;52.67;;;26.50;;
28904;SDS011;60848;53.884;11.446;2022-12-08T13:04:18;55.10;;;28.40;;
28904;SDS011;60848;53.884;11.446;2022-12-08T13:06:57;71.90;;;35.53;;
28904;SDS011;60848;53.884;11.446;2022-12-08T13:09:29;70.22;;;34.03;;
28904;SDS011;60848;53.884;11.446;2022-12-08T13:12:06;55.85;;;29.02;;
28904;SDS011;60848;53.884;11.446;2022-12-08T13:14:38;50.10;;;25.75;;
28904;SDS011;60848;53.884;11.446;2022-12-08T13:17:15;45.03;;;24.63;;
28904;SDS011;60848;53.884;11.446;2022-12-08T13:19:51;45.45;;;23.55;;
28904;SDS011;60848;53.884;11.446;2022-12-08T13:31:42;45.20;;;22.67;;
28904;SDS011;60848;53.884;11.446;2022-12-08T13:34:18;44.10;;;23.55;;
28904;SDS011;60848;53.884;11.446;2022-12-08T13:36:51;44.08;;;23.65;;
28904;SDS011;60848;53.884;11.446;2022-12-08T13:39:27;44.40;;;24.33;;
28904;SDS011;60848;53.884;11.446;2022-12-08T13:42:01;42.63;;;22.35;;
28904;SDS011;60848;53.884;11.446;2022-12-08T13:44:35;42.08;;;22.48;;
28904;SDS011;60848;53.884;11.446;2022-12-08T13:47:29;35.38;;;16.98;;
28904;SDS011;60848;53.884;11.446;2022-12-08T13:50:03;30.65;;;14.18;;
28904;SDS011;60848;53.884;11.446;2022-12-08T13:52:59;28.83;;;14.13;;
28904;SDS011;60848;53.884;11.446;2022-12-08T13:55:50;31.45;;;14.25;;
28904;SDS011;60848;53.884;11.446;2022-12-08T13:58:44;25.98;;;13.52;;
28904;SDS011;60848;53.884;11.446;2022-12-08T14:01:15;26.65;;;13.68;;
28904;SDS011;60848;53.884;11.446;2022-12-08T14:03:48;43.13;;;19.67;;
28904;SDS011;60848;53.884;11.446;2022-12-08T14:06:41;42.40;;;19.40;;
28904;SDS011;60848;53.884;11.446;2022-12-08T14:09:13;33.97;;;17.38;;
28904;SDS011;60848;53.884;11.446;2022-12-08T14:11:44;29.98;;;16.38;;
28904;SDS011;60848;53.884;11.446;2022-12-08T14:14:16;32.97;;;16.35;;
28904;SDS011;60848;53.884;11.446;2022-12-08T14:17:10;29.98;;;15.13;;
28904;SDS011;60848;53.884;11.446;2022-12-08T14:19:41;30.23;;;14.13;;
28904;SDS011;60848;53.884;11.446;2022-12-08T14:22:11;26.37;;;13.30;;
28904;SDS011;60848;53.884;11.446;2022-12-08T14:24:43;29.02;;;13.70;;
28904;SDS011;60848;53.884;11.446;2022-12-08T14:27:12;26.88;;;14.48;;
28904;SDS011;60848;53.884;11.446;2022-12-08T14:29:46;26.63;;;12.70;;
28904;SDS011;60848;53.884;11.446;2022-12-08T14:32:26;25.75;;;12.85;;
28904;SDS011;60848;53.884;11.446;2022-12-08T14:35:00;24.20;;;12.02;;
28904;SDS011;60848;53.884;11.446;2022-12-08T14:37:42;21.95;;;12.18;;
28904;SDS011;60848;53.884;11.446;2022-12-08T14:40:17;23.55;;;11.00;;
28904;SDS011;60848;53.884;11.446;2022-12-08T14:42:50;18.58;;;10.15;;
28904;SDS011;60848;53.884;11.446;2022-12-08T14:45:21;19.45;;;10.27;;
28904;SDS011;60848;53.884;11.446;2022-12-08T14:47:49;23.30;;;13.93;;
28904;SDS011;60848;53.884;11.446;2022-12-08T14:50:37;23.83;;;15.10;;
28904;SDS011;60848;53.884;11.446;2022-12-08T14:53:15;21.35;;;11.00;;
28904;SDS011;60848;53.884;11.446;2022-12-08T14:55:45;17.83;;;10.18;;
28904;SDS011;60848;53.884;11.446;2022-12-08T14:58:18;19.10;;;10.18;;
28904;SDS011;60848;53.884;11.446;2022-12-08T15:00:53;17.70;;;9.90;;
28904;SDS011;60848;53.884;11.446;2022-12-08T15:03:24;16.58;;;9.65;;
28904;SDS011;60848;53.884;11.446;2022-12-08T15:05:56;20.17;;;10.40;;
28904;SDS011;60848;53.884;11.446;2022-12-08T15:08:26;17.03;;;9.03;;
28904;SDS011;60848;53.884;11.446;2022-12-08T15:11:17;18.17;;;10.20;;
28904;SDS011;60848;53.884;11.446;2022-12-08T15:13:59;17.35;;;10.05;;
28904;SDS011;60848;53.884;11.446;2022-12-08T15:16:36;17.40;;;10.18;;
28904;SDS011;60848;53.884;11.446;2022-12-08T15:19:17;14.35;;;9.35;;
28904;SDS011;60848;53.884;11.446;2022-12-08T15:21:53;18.38;;;10.00;;
28904;SDS011;60848;53.884;11.446;2022-12-08T15:24:26;19.42;;;10.65;;
28904;SDS011;60848;53.884;11.446;2022-12-08T15:26:57;20.67;;;11.45;;
28904;SDS011;60848;53.884;11.446;2022-12-08T15:29:26;20.17;;;11.25;;
28904;SDS011;60848;53.884;11.446;2022-12-08T15:31:57;17.83;;;11.30;;
28904;SDS011;60848;53.884;11.446;2022-12-08T15:34:30;22.52;;;12.88;;
28904;SDS011;60848;53.884;11.446;2022-12-08T15:36:58;23.08;;;13.45;;
28904;SDS011;60848;53.884;11.446;2022-12-08T15:39:30;21.05;;;12.98;;
28904;SDS011;60848;53.884;11.446;2022-12-08T15:42:01;20.63;;;11.75;;
28904;SDS011;60848;53.884;11.446;2022-12-08T15:44:33;18.40;;;11.32;;
28904;SDS011;60848;53.884;11.446;2022-12-08T15:47:05;19.58;;;10.63;;
28904;SDS011;60848;53.884;11.446;2022-12-08T15:49:37;19.98;;;11.50;;
28904;SDS011;60848;53.884;11.446;2022-12-08T15:52:07;20.70;;;12.35;;